Time,TemperatureF,DewpointF,PressureIn,WindDirection,WindDirectionDegrees,WindSpeedMPH,WindSpeedGustMPH,Humidity,HourlyPrecipIn,Conditions,Clouds,dailyrainin,SoftwareType,DateUTC
2013-04-04 00:03:00,61.0,-99.9,-100.00,ESE,116,3.0,4.0,-999,-99.99,,,-99.99,,2013-04-04 06:03:00,
2013-04-04 00:13:00,61.0,-99.9,-100.00,ESE,116,3.0,4.0,-999,-99.99,,,-99.99,,2013-04-04 06:13:00,
2013-04-04 00:22:00,61.0,-99.9,-100.00,ESE,116,3.0,4.0,-999,-99.99,,,-99.99,,2013-04-04 06:22:00,
2013-04-04 01:03:00,59.0,-99.9,-100.00,NW,310,1.0,1.0,-999,-99.99,,,-99.99,,2013-04-04 07:03:00,
2013-04-04 01:10:00,60.0,-99.9,-100.00,SSW,209,4.0,4.0,-999,-99.99,,,-99.99,,2013-04-04 07:10:00,
2013-04-04 01:13:00,59.0,-99.9,-100.00,NW,310,1.0,1.0,-999,-99.99,,,-99.99,,2013-04-04 07:13:00,
2013-04-04 01:22:00,59.0,-99.9,-100.00,NW,310,1.0,1.0,-999,-99.99,,,-99.99,,2013-04-04 07:22:00,
2013-04-04 01:32:00,61.0,-99.9,-100.00,SSW,197,1.0,3.0,-999,-99.99,,,-99.99,,2013-04-04 07:32:00,
2013-04-04 01:43:00,61.0,-99.9,-100.00,SSW,197,1.0,3.0,-999,-99.99,,,-99.99,,2013-04-04 07:43:00,
2013-04-04 01:53:00,60.0,-99.9,-100.00,SSW,209,4.0,4.0,-999,-99.99,,,-99.99,,2013-04-04 07:53:00,
2013-04-04 02:03:00,60.0,-99.9,-100.00,SSW,209,4.0,4.0,-999,-99.99,,,-99.99,,2013-04-04 08:03:00,
2013-04-04 03:34:00,54.0,-99.9,-100.00,SW,224,6.0,6.0,-999,-99.99,,,-99.99,,2013-04-04 09:34:00,
2013-04-04 03:44:00,54.0,-99.9,-100.00,SW,224,6.0,6.0,-999,-99.99,,,-99.99,,2013-04-04 09:44:00,
2013-04-04 04:34:00,51.0,-99.9,-100.00,NNE,25,4.0,7.0,-999,-99.99,,,-99.99,,2013-04-04 10:34:00,
2013-04-04 04:43:00,51.0,-99.9,-100.00,NNE,25,4.0,7.0,-999,-99.99,,,-99.99,,2013-04-04 10:43:00,
2013-04-04 04:54:00,51.0,-99.9,-100.00,NNE,25,4.0,7.0,-999,-99.99,,,-99.99,,2013-04-04 10:54:00,
2013-04-04 05:03:00,51.0,-99.9,-100.00,NE,42,2.0,3.0,-999,-99.99,,,-99.99,,2013-04-04 11:03:00,
2013-04-04 05:13:00,51.0,-99.9,-100.00,NE,42,2.0,3.0,-999,-99.99,,,-99.99,,2013-04-04 11:13:00,
2013-04-04 05:23:00,51.0,-99.9,-100.00,NE,42,2.0,3.0,-999,-99.99,,,-99.99,,2013-04-04 11:23:00,
2013-04-04 06:33:00,50.0,-99.9,-100.00,SW,236,2.0,3.0,-999,-99.99,,,-99.99,,2013-04-04 12:33:00,
2013-04-04 06:44:00,50.0,-99.9,-100.00,SW,236,2.0,3.0,-999,-99.99,,,-99.99,,2013-04-04 12:44:00,
2013-04-04 06:53:00,48.0,-99.9,-100.00,SW,214,3.0,6.0,-999,-99.99,,,-99.99,,2013-04-04 12:53:00,
2013-04-04 07:03:00,48.0,-99.9,-100.00,SW,214,3.0,6.0,-999,-99.99,,,-99.99,,2013-04-04 13:03:00,
2013-04-04 08:53:00,54.0,-99.9,-100.00,NNE,25,2.0,3.0,-999,-99.99,,,-99.99,,2013-04-04 14:53:00,
2013-04-04 09:03:00,55.0,-99.9,-100.00,NNE,24,2.0,4.0,-999,-99.99,,,-99.99,,2013-04-04 15:03:00,
2013-04-04 09:13:00,55.0,-99.9,-100.00,NNE,24,2.0,4.0,-999,-99.99,,,-99.99,,2013-04-04 15:13:00,
2013-04-04 11:03:00,69.0,-99.9,-100.00,NE,36,1.0,2.0,-999,-99.99,,,-99.99,,2013-04-04 17:03:00,
2013-04-04 11:10:00,73.0,-99.9,-100.00,NE,34,3.0,3.0,-999,-99.99,,,-99.99,,2013-04-04 17:10:00,
2013-04-04 11:14:00,69.0,-99.9,-100.00,NE,36,1.0,2.0,-999,-99.99,,,-99.99,,2013-04-04 17:14:00,
2013-04-04 11:23:00,69.0,-99.9,-100.00,NE,36,1.0,2.0,-999,-99.99,,,-99.99,,2013-04-04 17:23:00,
2013-04-04 11:53:00,73.0,-99.9,-100.00,NE,34,3.0,3.0,-999,-99.99,,,-99.99,,2013-04-04 17:53:00,
2013-04-04 12:03:00,73.0,-99.9,-100.00,NE,34,3.0,3.0,-999,-99.99,,,-99.99,,2013-04-04 18:03:00,
2013-04-04 12:23:00,74.0,-99.9,-100.00,WSW,245,2.0,4.0,-999,-99.99,,,-99.99,,2013-04-04 18:23:00,
2013-04-04 12:33:00,74.0,-99.9,-100.00,WSW,245,2.0,4.0,-999,-99.99,,,-99.99,,2013-04-04 18:33:00,
2013-04-04 12:43:00,74.0,-99.9,-100.00,WSW,245,2.0,4.0,-999,-99.99,,,-99.99,,2013-04-04 18:43:00,
2013-04-04 13:53:00,80.0,-99.9,-100.00,NE,52,2.0,4.0,-999,-99.99,,,-99.99,,2013-04-04 19:53:00,
2013-04-04 14:04:00,80.0,-99.9,-100.00,NE,52,2.0,4.0,-999,-99.99,,,-99.99,,2013-04-04 20:04:00,
2013-04-04 15:53:00,82.0,-99.9,-100.00,SW,230,4.0,6.0,-999,-99.99,,,-99.99,,2013-04-04 21:53:00,
2013-04-04 16:04:00,82.0,-99.9,-100.00,SW,230,4.0,6.0,-999,-99.99,,,-99.99,,2013-04-04 22:04:00,
2013-04-04 17:53:00,82.0,-99.9,-100.00,SSW,213,1.0,2.0,-999,-99.99,,,-99.99,,2013-04-04 23:53:00,
2013-04-04 18:03:00,82.0,-99.9,-100.00,SSW,213,1.0,2.0,-999,-99.99,,,-99.99,,2013-04-05 00:03:00,
2013-04-04 18:40:00,79.0,-99.9,-100.00,ENE,65,4.0,9.0,-999,-99.99,,,-99.99,,2013-04-05 00:40:00,
2013-04-04 19:03:00,80.0,-99.9,-100.00,NE,34,3.0,6.0,-999,-99.99,,,-99.99,,2013-04-05 01:03:00,
2013-04-04 19:12:00,80.0,-99.9,-100.00,NE,34,3.0,6.0,-999,-99.99,,,-99.99,,2013-04-05 01:12:00,
2013-04-04 19:23:00,79.0,-99.9,-100.00,ENE,65,4.0,9.0,-999,-99.99,,,-99.99,,2013-04-05 01:23:00,
2013-04-04 19:33:00,79.0,-99.9,-100.00,ENE,65,4.0,9.0,-999,-99.99,,,-99.99,,2013-04-05 01:33:00,
2013-04-04 20:20:00,71.0,-99.9,-100.00,NNE,16,1.0,3.0,-999,-99.99,,,-99.99,,2013-04-05 02:20:00,
2013-04-04 21:02:00,71.0,-99.9,-100.00,NNE,16,1.0,3.0,-999,-99.99,,,-99.99,,2013-04-05 03:02:00,
2013-04-04 21:12:00,71.0,-99.9,-100.00,NNE,16,1.0,3.0,-999,-99.99,,,-99.99,,2013-04-05 03:12:00,
2013-04-04 22:00:00,69.0,-99.9,-100.00,WSW,246,2.0,6.0,-999,-99.99,,,-99.99,,2013-04-05 04:00:00,
2013-04-04 22:33:00,69.0,-99.9,-100.00,SW,220,6.0,8.0,-999,-99.99,,,-99.99,,2013-04-05 04:33:00,
2013-04-04 22:43:00,69.0,-99.9,-100.00,SW,220,6.0,8.0,-999,-99.99,,,-99.99,,2013-04-05 04:43:00,
2013-04-04 22:53:00,69.0,-99.9,-100.00,WSW,246,2.0,6.0,-999,-99.99,,,-99.99,,2013-04-05 04:53:00,
2013-04-04 23:22:00,70.0,-99.9,-100.00,West,271,1.0,1.0,-999,-99.99,,,-99.99,,2013-04-05 05:22:00,
2013-04-04 23:32:00,70.0,-99.9,-100.00,West,271,1.0,1.0,-999,-99.99,,,-99.99,,2013-04-05 05:32:00,